Time;durP1;ratioP1;P1;durP2;ratioP2;P2;SDS_P1;SDS_P2;PMS_P1;PMS_P2;Temp;Humidity;BMP_temperature;BMP_pressure;BME280_temperature;BME280_humidity;BME280_pressure;Samples;Min_cycle;Max_cycle;Signal;HPM_P1;HPM_P2
2024/01/24 00:00:21;;;;;;;9.00;8.10;;;;;;;-142.91;100.00;56616.03;5022554;28;21013;-74
2024/01/24 00:02:48;;;;;;;9.75;6.78;;;;;;;;;;5026340;28;21144;-73
2024/01/24 00:05:16;;;;;;;9.25;7.18;;;;;;;;;;5031498;28;20210;-72
2024/01/24 00:07:42;;;;;;;10.25;6.10;;;;;;;;;;5028356;28;20620;-71
2024/01/24 00:10:09;;;;;;;8.70;6.68;;;;;;;;;;5023209;28;20317;-73
2024/01/24 00:12:36;;;;;;;9.60;7.07;;;;;;;;;;5028074;28;20264;-71
2024/01/24 00:15:02;;;;;;;8.70;6.90;;;;;;;;;;5035224;28;20284;-75
2024/01/24 00:17:29;;;;;;;7.82;6.35;;;;;;;-142.91;100.00;56616.03;5033258;28;20730;-73
2024/01/24 00:19:55;;;;;;;7.35;6.65;;;;;;;;;;5026926;28;20282;-72
2024/01/24 00:22:23;;;;;;;10.45;7.15;;;;;;;;;;5027209;28;20789;-73
2024/01/24 00:24:50;;;;;;;8.35;6.43;;;;;;;-142.91;100.00;56616.03;5024641;28;20682;-74
2024/01/24 00:27:16;;;;;;;10.50;7.55;;;;;;;;;;5028481;28;20207;-71
2024/01/24 00:29:43;;;;;;;10.63;6.40;;;;;;;;;;5028266;28;20313;-72
2024/01/24 00:32:10;;;;;;;10.52;6.90;;;;;;;;;;5028712;28;20293;-73
2024/01/24 00:34:36;;;;;;;8.65;6.05;;;;;;;;;;5031036;28;20914;-71
2024/01/24 00:37:03;;;;;;;7.57;6.30;;;;;;;;;;5026885;28;20333;-74
2024/01/24 00:39:30;;;;;;;10.48;6.40;;;;;;;;;;5025047;28;20760;-71
2024/01/24 00:41:59;;;;;;;7.45;6.00;;;;;;;;;;5024238;28;20297;-74
2024/01/24 00:44:26;;;;;;;8.75;6.93;;;;;;;;;;5023863;28;20304;-75
2024/01/24 00:46:52;;;;;;;8.52;6.97;;;;;;;;;;5031243;28;20214;-74
2024/01/24 00:49:19;;;;;;;9.80;6.70;;;;;;;;;;5024106;28;20203;-75
2024/01/24 00:51:45;;;;;;;9.77;6.57;;;;;;;-142.91;100.00;56616.03;5025269;28;20207;-71
2024/01/24 00:54:12;;;;;;;11.90;7.53;;;;;;;-142.91;100.00;56616.03;5022381;28;20687;-75
2024/01/24 00:56:41;;;;;;;11.52;7.63;;;;;;;;;;5026949;28;20284;-73
2024/01/24 00:59:07;;;;;;;10.18;7.03;;;;;;;23.25;100.00;56616.03;5026865;28;20609;-70
2024/01/24 01:01:34;;;;;;;8.45;7.38;;;;;;;-142.91;100.00;56616.03;5028628;28;20298;-73
2024/01/24 01:04:00;;;;;;;9.25;7.82;;;;;;;;;;5026015;28;20227;-76
2024/01/24 01:06:27;;;;;;;12.80;7.35;;;;;;;;;;5024095;28;20301;-78
2024/01/24 01:08:53;;;;;;;10.30;7.65;;;;;;;;;;5031772;28;20207;-81
2024/01/24 01:11:20;;;;;;;9.10;7.13;;;;;;;;;;5035267;28;20658;-74
2024/01/24 01:13:48;;;;;;;9.27;6.80;;;;;;;;;;5027788;28;20222;-70
2024/01/24 01:16:14;;;;;;;8.73;6.82;;;;;;;;;;5027122;28;20297;-72
2024/01/24 01:18:41;;;;;;;8.95;7.22;;;;;;;;;;5026947;28;20298;-77
2024/01/24 01:21:07;;;;;;;10.70;6.43;;;;;;;;;;5022887;28;20223;-71
2024/01/24 01:23:33;;;;;;;10.35;6.05;;;;;;;;;;5025229;28;20293;-72
2024/01/24 01:26:00;;;;;;;9.52;6.05;;;;;;;-142.91;100.00;56616.03;5026087;28;20203;-71
2024/01/24 01:28:27;;;;;;;8.68;7.05;;;;;;;23.27;100.00;56616.03;5028339;28;20314;-73
2024/01/24 01:30:54;;;;;;;10.60;7.63;;;;;;;;;;5030869;28;20231;-73
2024/01/24 01:33:21;;;;;;;7.85;6.45;;;;;;;;;;5027670;28;20202;-73
2024/01/24 01:35:47;;;;;;;6.95;6.07;;;;;;;;;;5028749;28;20207;-73
2024/01/24 01:38:14;;;;;;;7.80;6.07;;;;;;;-142.91;100.00;56616.03;5022849;28;20206;-75
2024/01/24 01:40:40;;;;;;;11.63;6.65;;;;;;;;;;5028135;28;20298;-71
2024/01/24 01:43:09;;;;;;;7.05;6.45;;;;;;;;;;5031799;28;20207;-71
2024/01/24 01:45:36;;;;;;;8.68;6.65;;;;;;;;;;5032525;28;20287;-71
2024/01/24 01:48:04;;;;;;;10.75;7.07;;;;;;;;;;5044398;28;20310;-73
2024/01/24 01:50:30;;;;;;;8.10;6.78;;;;;;;;;;5053335;28;20237;-78
2024/01/24 01:52:56;;;;;;;12.23;7.82;;;;;;;;;;5055191;28;20217;-75
2024/01/24 01:55:23;;;;;;;11.05;8.13;;;;;;;-142.91;100.00;56616.03;5052251;28;20668;-73
2024/01/24 01:57:50;;;;;;;11.60;8.18;;;;;;;;;;5044111;28;20298;-74
2024/01/24 02:00:20;;;;;;;10.85;7.85;;;;;;;;;;5047466;28;20286;-73
2024/01/24 02:02:47;;;;;;;8.63;7.68;;;;;;;;;;5058211;28;20198;-71
2024/01/24 02:05:16;;;;;;;12.50;7.25;;;;;;;;;;5059216;28;20194;-69
2024/01/24 02:07:43;;;;;;;10.43;6.28;;;;;;;;;;5061052;28;20301;-72
2024/01/24 02:10:11;;;;;;;9.48;7.30;;;;;;;-142.91;100.00;56616.03;5061201;28;20221;-71
2024/01/24 02:12:37;;;;;;;12.73;6.45;;;;;;;-142.91;100.00;56616.03;5017920;28;20649;-70
2024/01/24 02:15:04;;;;;;;7.38;6.18;;;;;;;;;;5020470;28;20207;-73
2024/01/24 02:17:30;;;;;;;9.52;6.47;;;;;;;;;;5018007;28;20301;-75
2024/01/24 02:19:57;;;;;;;11.02;5.38;;;;;;;23.25;100.00;56616.03;5011918;28;20297;-74
2024/01/24 02:22:25;;;;;;;9.68;6.30;;;;;;;;;;5015828;28;20337;-72
2024/01/24 02:24:53;;;;;;;7.80;6.13;;;;;;;23.29;100.00;56616.03;5013878;28;20334;-73
2024/01/24 02:27:19;;;;;;;8.23;6.72;;;;;;;;;;5019957;28;20200;-72
2024/01/24 02:29:46;;;;;;;7.15;6.45;;;;;;;23.27;100.00;56616.03;5030377;28;20763;-73
2024/01/24 02:32:11;;;;;;;12.63;7.38;;;;;;;;;;5026411;28;20720;-73
2024/01/24 02:34:38;;;;;;;7.90;6.70;;;;;;;;;;5028217;28;20215;-72
2024/01/24 02:37:04;;;;;;;6.47;5.70;;;;;;;;;;5029755;28;20282;-73
2024/01/24 02:39:31;;;;;;;9.95;6.35;;;;;;;23.29;100.00;56616.03;5041290;28;20755;-73
2024/01/24 02:41:59;;;;;;;7.25;5.65;;;;;;;23.25;100.00;56616.03;5038940;28;20284;-72
2024/01/24 02:44:25;;;;;;;7.78;5.35;;;;;;;;;;5037777;28;20306;-70
2024/01/24 02:46:52;;;;;;;6.43;5.75;;;;;;;23.25;100.00;56616.03;5031047;28;20690;-73
2024/01/24 02:49:18;;;;;;;8.70;6.03;;;;;;;;;;5030418;28;20204;-74
2024/01/24 02:51:45;;;;;;;8.18;5.80;;;;;;;23.25;100.00;56616.03;5025790;28;20665;-72
2024/01/24 02:54:11;;;;;;;10.10;6.03;;;;;;;;;;5028030;28;20270;-72
2024/01/24 02:56:39;;;;;;;7.07;5.55;;;;;;;;;;5031105;28;20775;-71
2024/01/24 02:59:07;;;;;;;8.27;6.65;;;;;;;;;;5027269;28;20219;-74
2024/01/24 03:01:33;;;;;;;11.70;7.05;;;;;;;23.26;100.00;56616.03;5032839;28;20286;-72
2024/01/24 03:04:00;;;;;;;10.52;6.60;;;;;;;-142.91;100.00;56616.03;5028891;28;20231;-71
2024/01/24 03:06:26;;;;;;;12.45;6.72;;;;;;;23.26;100.00;56616.03;5033497;28;20639;-72
2024/01/24 03:08:55;;;;;;;9.80;5.97;;;;;;;;;;5030360;28;20235;-73
2024/01/24 03:11:21;;;;;;;12.35;6.78;;;;;;;-142.91;100.00;77564.66;5036388;28;20219;-74
2024/01/24 03:13:48;;;;;;;8.98;6.63;;;;;;;23.25;100.00;56616.03;5032780;28;20306;-75
2024/01/24 03:16:16;;;;;;;8.50;6.32;;;;;;;;;;5028040;28;20639;-73
2024/01/24 03:18:43;;;;;;;10.18;7.18;;;;;;;23.25;100.00;56616.03;5030752;28;20623;-76
2024/01/24 03:21:14;;;;;;;11.60;8.10;;;;;;;;;;5035142;28;20227;-73
2024/01/24 03:23:41;;;;;;;8.70;7.47;;;;;;;23.25;100.00;56616.03;5037257;28;20294;-73
2024/01/24 03:26:07;;;;;;;11.63;7.22;;;;;;;;;;5043832;28;20298;-71
2024/01/24 03:28:34;;;;;;;14.18;8.48;;;;;;;23.25;100.00;56616.03;5045099;28;20735;-72
2024/01/24 03:31:01;;;;;;;10.13;7.43;;;;;;;;;;5033062;28;20226;-74
2024/01/24 03:33:28;;;;;;;12.55;8.18;;;;;;;;;;5022841;28;20219;-71
2024/01/24 03:35:55;;;;;;;15.30;7.82;;;;;;;23.26;100.00;56616.03;5031022;28;20242;-73
2024/01/24 03:38:22;;;;;;;11.00;7.35;;;;;;;23.25;100.00;56616.03;5029573;28;20294;-73
2024/01/24 03:40:49;;;;;;;11.43;8.15;;;;;;;;;;5030466;28;20285;-71
2024/01/24 03:43:16;;;;;;;9.18;7.90;;;;;;;-142.91;100.00;56616.03;5033709;28;20250;-73
2024/01/24 03:45:43;;;;;;;13.40;6.95;;;;;;;;;;5035270;28;20196;-73
2024/01/24 03:48:09;;;;;;;10.45;7.32;;;;;;;;;;5031514;28;20311;-73
2024/01/24 03:50:37;;;;;;;12.57;7.93;;;;;;;;;;5033147;28;20335;-75
2024/01/24 03:53:05;;;;;;;9.70;7.30;;;;;;;23.27;100.00;56616.03;5032157;28;20195;-73
2024/01/24 03:55:31;;;;;;;13.60;8.45;;;;;;;23.25;100.00;56616.03;5027604;28;20291;-71
2024/01/24 03:57:58;;;;;;;11.02;8.27;;;;;;;;;;5029673;28;20769;-71
2024/01/24 04:00:24;;;;;;;11.80;7.72;;;;;;;;;;5031518;28;20322;-73
2024/01/24 04:02:51;;;;;;;13.00;6.68;;;;;;;;;;5036206;28;20302;-74
2024/01/24 04:05:17;;;;;;;10.35;7.22;;;;;;;-142.91;100.00;56616.03;5038862;28;20752;-73
2024/01/24 04:07:45;;;;;;;10.90;9.10;;;;;;;;;;5032667;28;20286;-72
2024/01/24 04:10:12;;;;;;;11.63;7.90;;;;;;;;;;5029011;28;20200;-73
2024/01/24 04:12:38;;;;;;;11.57;7.55;;;;;;;;;;5030783;28;20792;-74
2024/01/24 04:15:05;;;;;;;13.07;7.82;;;;;;;;;;5036382;28;20198;-73
2024/01/24 04:17:32;;;;;;;12.43;7.57;;;;;;;;;;5043311;28;21592;-73
2024/01/24 04:19:58;;;;;;;12.80;8.40;;;;;;;;;;5037773;28;20287;-73
2024/01/24 04:22:25;;;;;;;9.40;7.90;;;;;;;-142.91;100.00;56616.03;5034321;28;20693;-71
2024/01/24 04:24:53;;;;;;;11.65;8.35;;;;;;;-142.91;100.00;56616.03;5034660;28;20323;-74
2024/01/24 04:27:19;;;;;;;12.82;7.75;;;;;;;;;;5030775;28;20366;-71
2024/01/24 04:29:46;;;;;;;12.13;8.32;;;;;;;-142.91;100.00;56616.03;5031144;28;20305;-70
2024/01/24 04:32:12;;;;;;;8.60;7.07;;;;;;;-142.91;100.00;56616.03;5035163;28;20207;-72
2024/01/24 04:34:39;;;;;;;13.07;8.65;;;;;;;;;;5031773;28;20230;-73
2024/01/24 04:37:05;;;;;;;12.45;7.72;;;;;;;;;;5031247;28;20397;-73
2024/01/24 04:39:31;;;;;;;10.20;7.65;;;;;;;;;;5038808;28;20664;-74
2024/01/24 04:41:59;;;;;;;9.32;6.97;;;;;;;;;;5038086;28;20310;-73
2024/01/24 04:44:26;;;;;;;11.43;7.80;;;;;;;;;;5037525;28;20290;-73
2024/01/24 04:46:52;;;;;;;13.35;7.85;;;;;;;;;;5032710;28;20290;-72
2024/01/24 04:49:18;;;;;;;12.38;8.05;;;;;;;;;;5034404;28;20482;-73
2024/01/24 04:51:45;;;;;;;10.57;7.88;;;;;;;;;;5033821;28;20780;-72
2024/01/24 04:54:11;;;;;;;12.65;7.70;;;;;;;-142.91;100.00;56616.03;5032850;28;20783;-73
2024/01/24 04:56:44;;;;;;;17.33;8.25;;;;;;;-142.91;100.00;56616.03;5035960;28;20295;-72
2024/01/24 04:59:12;;;;;;;11.63;8.43;;;;;;;;;;5032877;28;20286;-72
2024/01/24 05:01:39;;;;;;;11.20;8.88;;;;;;;-142.91;100.00;56616.03;5033595;28;20708;-73
2024/01/24 05:04:05;;;;;;;13.55;7.57;;;;;;;23.25;100.00;56616.03;5029215;28;20330;-71
2024/01/24 05:06:32;;;;;;;16.05;8.45;;;;;;;23.25;100.00;56616.03;5037060;28;20285;-74
2024/01/24 05:08:58;;;;;;;10.63;7.28;;;;;;;-142.91;100.00;56616.03;5027781;28;20234;-70
2024/01/24 05:11:25;;;;;;;15.82;8.35;;;;;;;-142.91;100.00;56616.03;5037719;28;20309;-72
2024/01/24 05:13:53;;;;;;;9.75;7.70;;;;;;;;;;5031821;28;20807;-71
2024/01/24 05:16:21;;;;;;;50.70;23.42;;;;;;;;;;5034895;28;20215;-72
2024/01/24 05:18:47;;;;;;;38.75;20.02;;;;;;;-142.91;100.00;56616.03;5032316;28;20287;-72
2024/01/24 05:21:14;;;;;;;16.85;10.43;;;;;;;-142.91;100.00;56616.03;5039416;28;20269;-72
2024/01/24 05:23:42;;;;;;;39.47;20.95;;;;;;;;;;5034480;28;20856;-73
2024/01/24 05:26:08;;;;;;;24.80;13.68;;;;;;;;;;5036127;28;20213;-73
2024/01/24 05:28:35;;;;;;;19.17;11.00;;;;;;;-142.91;100.00;56616.03;5031566;28;20286;-71
2024/01/24 05:31:02;;;;;;;9.98;8.18;;;;;;;-142.91;100.00;56616.03;5031610;28;20318;-70
2024/01/24 05:33:30;;;;;;;12.13;8.40;;;;;;;;;;5040133;28;20199;-71
2024/01/24 05:35:57;;;;;;;12.50;9.23;;;;;;;-142.91;100.00;56616.03;5034612;28;20290;-72
2024/01/24 05:38:23;;;;;;;14.35;9.38;;;;;;;-142.91;100.00;56616.03;5028630;28;20283;-72
2024/01/24 05:40:50;;;;;;;21.95;13.00;;;;;;;;;;5027666;28;20204;-72
2024/01/24 05:43:17;;;;;;;17.17;10.48;;;;;;;-142.91;100.00;56616.03;5028831;28;20681;-72
2024/01/24 05:45:43;;;;;;;15.13;9.65;;;;;;;;;;5040339;28;20611;-71
2024/01/24 05:48:10;;;;;;;11.90;8.52;;;;;;;-142.91;100.00;56616.03;5038150;28;20200;-73
2024/01/24 05:50:38;;;;;;;12.90;8.13;;;;;;;-142.91;100.00;56616.03;5036458;28;20264;-71
2024/01/24 05:53:04;;;;;;;12.18;8.98;;;;;;;;;;5038138;28;20788;-74
2024/01/24 05:55:30;;;;;;;15.95;9.10;;;;;;;;;;5035350;28;20282;-72
2024/01/24 05:57:57;;;;;;;14.30;8.15;;;;;;;;;;5037222;28;20278;-72
2024/01/24 06:00:23;;;;;;;14.05;8.88;;;;;;;;;;5042459;28;20290;-72
2024/01/24 06:02:50;;;;;;;14.93;8.25;;;;;;;;;;5038500;28;20261;-71
2024/01/24 06:05:15;;;;;;;14.20;8.70;;;;;;;;;;5035965;28;20283;-71
2024/01/24 06:07:43;;;;;;;10.90;7.90;;;;;;;;;;5032031;28;20282;-74
2024/01/24 06:10:10;;;;;;;12.05;8.20;;;;;;;;;;5032524;28;20505;-72
2024/01/24 06:12:37;;;;;;;14.02;9.30;;;;;;;;;;5033286;28;20313;-72
2024/01/24 06:15:04;;;;;;;16.75;9.65;;;;;;;;;;5028946;28;20286;-74
2024/01/24 06:17:31;;;;;;;18.58;9.73;;;;;;;;;;5034183;28;20278;-73
2024/01/24 06:19:59;;;;;;;12.00;8.32;;;;;;;;;;5028801;28;20204;-73
2024/01/24 06:22:26;;;;;;;13.63;8.63;;;;;;;-142.91;100.00;56616.03;5030571;28;20319;-73
2024/01/24 06:24:54;;;;;;;12.30;8.40;;;;;;;-142.91;100.00;56616.03;5034377;28;20655;-72
2024/01/24 06:27:20;;;;;;;17.83;8.20;;;;;;;-142.91;100.00;56616.03;5034135;28;20295;-71
2024/01/24 06:29:47;;;;;;;15.20;8.32;;;;;;;;;;5036677;28;20285;-73
2024/01/24 06:32:13;;;;;;;12.38;8.68;;;;;;;-142.91;100.00;56616.03;5029417;28;20656;-73
2024/01/24 06:34:40;;;;;;;14.15;8.45;;;;;;;;;;5032167;28;20291;-73
2024/01/24 06:37:09;;;;;;;11.23;8.30;;;;;;;;;;5037319;28;20219;-73
2024/01/24 06:39:36;;;;;;;12.95;9.52;;;;;;;;;;5030559;28;20256;-72
2024/01/24 06:42:04;;;;;;;8.55;7.63;;;;;;;23.29;100.00;56616.03;5028283;28;20286;-72
2024/01/24 06:44:30;;;;;;;9.88;7.47;;;;;;;;;;5043290;28;20289;-72
2024/01/24 06:46:57;;;;;;;14.45;8.55;;;;;;;;;;5038496;28;20733;-74
2024/01/24 06:49:23;;;;;;;14.32;8.65;;;;;;;;;;5032819;28;20290;-71
2024/01/24 06:51:50;;;;;;;13.13;9.30;;;;;;;;;;5039153;28;20317;-72
2024/01/24 06:54:16;;;;;;;14.63;8.35;;;;;;;;;;5037822;28;20214;-71
2024/01/24 06:56:43;;;;;;;11.07;7.22;;;;;;;;;;5036016;28;20302;-72
2024/01/24 06:59:12;;;;;;;9.73;7.28;;;;;;;;;;5032738;28;20273;-72
2024/01/24 07:01:38;;;;;;;8.27;6.95;;;;;;;;;;5035308;28;20677;-72
2024/01/24 07:04:04;;;;;;;12.63;7.60;;;;;;;;;;5031859;28;20235;-71
2024/01/24 07:06:31;;;;;;;10.85;7.55;;;;;;;;;;5031370;28;20282;-71
2024/01/24 07:08:57;;;;;;;9.25;7.22;;;;;;;;;;5035165;28;20745;-72
2024/01/24 07:11:24;;;;;;;11.60;6.32;;;;;;;;;;5036295;28;20283;-70
2024/01/24 07:13:50;;;;;;;9.38;6.20;;;;;;;;;;5031982;28;20326;-73
2024/01/24 07:16:18;;;;;;;9.70;6.82;;;;;;;-142.91;100.00;56616.03;5033982;28;20349;-70
2024/01/24 07:18:44;;;;;;;7.80;6.13;;;;;;;;;;5033859;28;20283;-72
2024/01/24 07:21:11;;;;;;;8.75;6.65;;;;;;;23.26;100.00;56616.03;5019348;28;20233;-71
2024/01/24 07:23:39;;;;;;;13.73;7.30;;;;;;;;;;5021252;28;20302;-71
2024/01/24 07:26:05;;;;;;;6.97;6.28;;;;;;;-142.91;100.00;56616.03;5022390;28;20239;-71
2024/01/24 07:28:32;;;;;;;6.72;6.03;;;;;;;;;;5026806;28;20204;-70
2024/01/24 07:30:58;;;;;;;12.05;6.10;;;;;;;;;;5032795;28;20634;-70
2024/01/24 07:33:26;;;;;;;11.60;6.60;;;;;;;;;;5033554;28;20314;-70
2024/01/24 07:35:53;;;;;;;6.05;5.07;;;;;;;;;;5035426;28;20207;-71
2024/01/24 07:38:20;;;;;;;7.22;5.20;;;;;;;;;;5037927;28;20212;-69
2024/01/24 07:40:46;;;;;;;6.05;5.00;;;;;;;;;;5037781;28;20203;-75
2024/01/24 07:43:13;;;;;;;7.35;5.25;;;;;;;;;;5051924;28;20308;-74
2024/01/24 07:45:39;;;;;;;10.00;5.43;;;;;;;;;;5051350;28;20286;-75
2024/01/24 07:48:07;;;;;;;6.35;5.75;;;;;;;-142.91;100.00;56616.03;5051758;28;20298;-76
2024/01/24 07:50:35;;;;;;;9.48;5.75;;;;;;;;;;5051820;28;20628;-74
2024/01/24 07:53:01;;;;;;;6.13;5.25;;;;;;;;;;5051470;28;20317;-74
2024/01/24 07:55:28;;;;;;;8.60;5.63;;;;;;;;;;5050609;28;20651;-75
2024/01/24 07:57:54;;;;;;;7.47;5.32;;;;;;;;;;5052454;28;20290;-77
2024/01/24 08:00:21;;;;;;;6.68;6.00;;;;;;;;;;5052260;28;20286;-76
2024/01/24 08:02:47;;;;;;;6.78;5.28;;;;;;;;;;5051075;28;20222;-76
2024/01/24 08:05:14;;;;;;;8.05;6.00;;;;;;;;;;5051696;28;20290;-76
2024/01/24 08:07:42;;;;;;;9.73;5.60;;;;;;;-142.91;100.00;56616.03;5051407;28;20305;-75
2024/01/24 08:10:11;;;;;;;6.13;5.05;;;;;;;-142.91;100.00;56616.03;5046570;28;20290;-76
2024/01/24 08:12:38;;;;;;;7.93;5.80;;;;;;;;;;5048924;28;20226;-77
2024/01/24 08:15:05;;;;;;;6.55;5.45;;;;;;;;;;5049507;28;20223;-74
2024/01/24 08:17:31;;;;;;;11.27;5.95;;;;;;;;;;5050616;28;20637;-76
2024/01/24 08:19:58;;;;;;;9.68;6.40;;;;;;;;;;5051272;28;20286;-75
2024/01/24 08:22:24;;;;;;;14.43;6.43;;;;;;;;;;5050531;28;20676;-77
2024/01/24 08:24:52;;;;;;;9.38;5.82;;;;;;;-142.91;100.00;56616.03;5050835;28;20290;-75
2024/01/24 08:27:19;;;;;;;15.20;7.93;;;;;;;;;;5051044;28;20246;-75
2024/01/24 08:29:45;;;;;;;10.63;6.63;;;;;;;;;;5051397;28;20285;-76
2024/01/24 08:32:12;;;;;;;7.70;6.15;;;;;;;;;;5052482;28;20223;-76
2024/01/24 08:34:38;;;;;;;11.90;6.97;;;;;;;;;;5052460;28;20278;-74
2024/01/24 08:37:05;;;;;;;11.55;5.70;;;;;;;;;;5052641;28;20686;-76
2024/01/24 08:39:32;;;;;;;6.07;4.82;;;;;;;;;;5051549;28;20233;-74
2024/01/24 08:42:00;;;;;;;9.35;5.53;;;;;;;;;;5051919;28;20679;-76
2024/01/24 08:44:27;;;;;;;8.48;5.82;;;;;;;;;;5052426;28;20324;-75
2024/01/24 08:46:53;;;;;;;8.52;6.32;;;;;;;;;;5052294;28;20268;-75
2024/01/24 08:49:19;;;;;;;8.48;6.05;;;;;;;;;;5052254;28;20289;-74
2024/01/24 08:51:46;;;;;;;6.80;5.45;;;;;;;;;;5052461;28;20278;-74
2024/01/24 08:54:12;;;;;;;7.03;6.32;;;;;;;;;;5052280;28;20318;-74
2024/01/24 08:56:39;;;;;;;9.10;6.50;;;;;;;;;;5052033;28;20748;-74
2024/01/24 08:59:07;;;;;;;13.68;5.78;;;;;;;;;;5052298;28;20223;-76
2024/01/24 09:01:33;;;;;;;13.23;6.13;;;;;;;;;;5052099;28;20604;-75
2024/01/24 09:04:00;;;;;;;8.02;7.22;;;;;;;;;;5052185;28;20280;-75
2024/01/24 09:06:26;;;;;;;12.73;6.75;;;;;;;;;;5051675;28;20233;-78
2024/01/24 09:08:52;;;;;;;10.02;6.35;;;;;;;;;;5051951;28;20624;-77
2024/01/24 09:11:19;;;;;;;10.88;6.50;;;;;;;;;;5051953;28;20197;-76
2024/01/24 09:13:46;;;;;;;10.48;6.55;;;;;;;;;;5051481;28;20317;-76
2024/01/24 09:16:14;;;;;;;8.27;7.32;;;;;;;;;;5052157;28;20298;-76
2024/01/24 09:18:40;;;;;;;7.90;6.40;;;;;;;;;;5051697;28;20762;-75
2024/01/24 09:21:07;;;;;;;14.32;7.40;;;;;;;;;;5052030;28;20223;-75
2024/01/24 09:23:33;;;;;;;8.00;6.85;;;;;;;;;;5052186;28;20291;-76
2024/01/24 09:26:00;;;;;;;10.60;7.80;;;;;;;;;;5051876;28;20679;-77
2024/01/24 09:28:27;;;;;;;12.82;7.35;;;;;;;;;;5052031;28;20282;-77
2024/01/24 09:30:53;;;;;;;11.18;6.82;;;;;;;;;;5051529;28;20238;-75
2024/01/24 09:33:21;;;;;;;9.70;7.45;;;;;;;;;;5051679;28;20257;-76
2024/01/24 09:35:47;;;;;;;11.68;6.90;;;;;;;;;;5051397;28;20763;-76
2024/01/24 09:38:14;;;;;;;10.48;6.53;;;;;;;;;;5051367;28;20227;-76
2024/01/24 09:40:41;;;;;;;10.90;8.65;;;;;;;;;;5051462;28;20203;-77
2024/01/24 09:43:09;;;;;;;8.20;7.05;;;;;;;;;;5051349;28;20195;-77
2024/01/24 09:45:38;;;;;;;10.40;7.03;;;;;;;;;;5051666;28;20648;-78
2024/01/24 09:48:07;;;;;;;8.85;6.82;;;;;;;;;;5051455;28;20306;-75
2024/01/24 09:50:35;;;;;;;9.68;7.10;;;;;;;;;;5051529;28;20248;-76
2024/01/24 09:53:03;;;;;;;9.70;6.78;;;;;;;;;;5050948;28;20310;-75
2024/01/24 09:55:31;;;;;;;11.35;6.75;;;;;;;;;;5051303;28;20306;-78
2024/01/24 09:57:58;;;;;;;10.68;7.50;;;;;;;;;;5051160;28;20221;-77
2024/01/24 10:00:24;;;;;;;10.15;7.05;;;;;;;;;;5050890;28;20663;-76
2024/01/24 10:02:51;;;;;;;11.27;6.53;;;;;;;;;;5050713;28;20673;-77
2024/01/24 10:05:18;;;;;;;9.48;7.40;;;;;;;;;;5051099;28;20290;-77
2024/01/24 10:07:46;;;;;;;9.48;7.18;;;;;;;;;;5051008;28;20230;-76
2024/01/24 10:10:13;;;;;;;8.38;7.50;;;;;;;;;;5051312;28;20206;-77
2024/01/24 10:12:41;;;;;;;7.03;5.95;;;;;;;;;;5050363;28;20719;-77
2024/01/24 10:15:08;;;;;;;8.07;6.57;;;;;;;;;;5051212;28;20199;-77
2024/01/24 10:17:34;;;;;;;9.43;6.93;;;;;;;;;;5046373;28;20290;-79
2024/01/24 10:20:01;;;;;;;13.73;7.65;;;;;;;;;;5049185;28;20262;-79
2024/01/24 10:22:27;;;;;;;9.18;7.03;;;;;;;;;;5048959;28;20314;-77
2024/01/24 10:24:55;;;;;;;9.77;5.88;;;;;;;;;;5048958;28;20652;-77
2024/01/24 10:27:22;;;;;;;9.82;6.72;;;;;;;;;;5049169;28;20589;-77
2024/01/24 10:29:48;;;;;;;10.77;6.82;;;;;;;-142.91;100.00;56616.03;5049395;28;20238;-79
2024/01/24 10:32:15;;;;;;;8.02;6.70;;;;;;;;;;5049242;28;20226;-76
2024/01/24 10:34:41;;;;;;;13.23;7.25;;;;;;;;;;5048626;28;20314;-76
2024/01/24 10:37:08;;;;;;;7.85;6.90;;;;;;;;;;5049589;28;20298;-76
2024/01/24 10:39:35;;;;;;;9.77;6.32;;;;;;;;;;5050344;28;20198;-79
2024/01/24 10:42:04;;;;;;;9.68;7.47;;;;;;;;;;5049883;28;20281;-77
2024/01/24 10:44:32;;;;;;;10.23;6.75;;;;;;;;;;5049386;28;20195;-77
2024/01/24 10:46:59;;;;;;;11.88;7.20;;;;;;;;;;5050858;28;20199;-78
2024/01/24 10:49:26;;;;;;;11.85;6.47;;;;;;;;;;5049288;28;20203;-79
2024/01/24 10:51:53;;;;;;;9.73;7.00;;;;;;;-142.91;100.00;56616.03;5050835;28;20289;-77
2024/01/24 10:54:20;;;;;;;9.35;6.15;;;;;;;;;;5050250;28;20787;-78
2024/01/24 10:56:50;;;;;;;9.07;6.80;;;;;;;;;;5050371;28;20668;-78
2024/01/24 10:59:17;;;;;;;9.13;7.15;;;;;;;;;;5050444;28;20195;-78
2024/01/24 11:01:44;;;;;;;8.20;6.35;;;;;;;;;;5049970;28;20310;-76
2024/01/24 11:04:11;;;;;;;8.63;6.07;;;;;;;;;;5050466;28;20211;-77
2024/01/24 11:06:42;;;;;;;11.95;6.65;;;;;;;;;;5050610;28;20227;-77
2024/01/24 11:09:16;;;;;;;10.60;7.70;;;;;;;;;;5050739;28;20282;-79
2024/01/24 11:11:44;;;;;;;11.93;6.90;;;;;;;;;;5050478;28;20222;-77
2024/01/24 11:14:10;;;;;;;8.43;6.47;;;;;;;;;;5049969;28;20727;-78
2024/01/24 11:16:39;;;;;;;8.07;6.63;;;;;;;;;;5050444;28;20233;-76
2024/01/24 11:19:20;;;;;;;7.15;5.90;;;;;;;-142.91;100.00;56616.03;5050350;28;20214;-78
2024/01/24 11:21:47;;;;;;;9.30;6.15;;;;;;;;;;5050484;28;20219;-79
2024/01/24 11:24:13;;;;;;;8.93;6.18;;;;;;;;;;5050105;28;20285;-78
2024/01/24 11:26:49;;;;;;;8.27;5.85;;;;;;;;;;5050629;28;20225;-78
2024/01/24 11:29:16;;;;;;;8.60;6.60;;;;;;;;;;5052276;28;20213;-78
2024/01/24 11:31:44;;;;;;;11.55;6.30;;;;;;;;;;5054083;28;20277;-77
2024/01/24 11:34:11;;;;;;;9.02;6.63;;;;;;;;;;5053398;28;20310;-77
2024/01/24 11:36:41;;;;;;;8.65;6.30;;;;;;;;;;5053871;28;20199;-77
2024/01/24 11:39:22;;;;;;;14.13;7.03;;;;;;;;;;5053740;28;20195;-77
2024/01/24 11:41:49;;;;;;;8.73;6.18;;;;;;;;;;5053480;28;20740;-77
2024/01/24 11:44:19;;;;;;;9.30;6.78;;;;;;;;;;5053673;28;20231;-77
2024/01/24 11:46:47;;;;;;;8.90;6.50;;;;;;;;;;5053470;28;20290;-78
2024/01/24 11:49:13;;;;;;;9.65;6.55;;;;;;;;;;5053542;28;20235;-77
2024/01/24 11:51:40;;;;;;;7.68;6.15;;;;;;;;;;5053388;28;20764;-78
2024/01/24 11:54:06;;;;;;;11.40;6.10;;;;;;;;;;5053399;28;20318;-80
2024/01/24 11:56:35;;;;;;;6.55;5.22;;;;;;;;;;5053177;28;20727;-78
2024/01/24 11:59:02;;;;;;;7.40;5.25;;;;;;;;;;5053498;28;20203;-77
2024/01/24 12:01:29;;;;;;;8.10;6.10;;;;;;;;;;5053192;28;20194;-78
2024/01/24 12:03:56;;;;;;;6.82;5.50;;;;;;;;;;5053278;28;20218;-77
2024/01/24 12:06:23;;;;;;;6.75;5.82;;;;;;;;;;5053166;28;20681;-78
2024/01/24 12:08:49;;;;;;;7.07;5.53;;;;;;;;;;5052709;28;20290;-78
2024/01/24 12:11:16;;;;;;;5.82;4.93;;;;;;;;;;5053327;28;20227;-79
2024/01/24 12:13:42;;;;;;;5.35;4.93;;;;;;;;;;5052475;28;20334;-79
2024/01/24 12:16:09;;;;;;;10.63;6.10;;;;;;;;;;5052991;28;20203;-77
2024/01/24 12:18:37;;;;;;;7.30;5.25;;;;;;;;;;5053066;28;20203;-78
2024/01/24 12:21:08;;;;;;;9.30;6.13;;;;;;;;;;5052955;28;20258;-78
2024/01/24 12:23:35;;;;;;;6.40;5.80;;;;;;;;;;5050998;28;20196;-77
2024/01/24 12:26:01;;;;;;;6.07;5.13;;;;;;;;;;5050264;28;20207;-78
2024/01/24 12:28:28;;;;;;;10.18;4.97;;;;;;;;;;5050973;28;20256;-78
2024/01/24 12:30:54;;;;;;;6.05;4.53;;;;;;;;;;5050494;28;20707;-77
2024/01/24 12:33:21;;;;;;;4.75;3.60;;;;;;;;;;5051055;28;20246;-75
2024/01/24 12:35:48;;;;;;;4.38;3.72;;;;;;;;;;5050671;28;20922;-77
2024/01/24 12:38:15;;;;;;;7.20;3.60;;;;;;;;;;5051002;28;20695;-78
2024/01/24 12:40:48;;;;;;;4.22;3.78;;;;;;;;;;5049897;28;20645;-78
2024/01/24 12:43:14;;;;;;;7.10;3.75;;;;;;;;;;5050926;28;20202;-78
2024/01/24 12:45:41;;;;;;;4.35;3.25;;;;;;;;;;5050679;28;20293;-79
2024/01/24 12:48:11;;;;;;;6.03;3.88;;;;;;;-142.91;0.00;56616.03;5050796;28;20242;-79
2024/01/24 12:50:38;;;;;;;5.22;3.95;;;;;;;-142.91;100.00;56616.03;5051022;28;20592;-78
2024/01/24 12:53:04;;;;;;;4.90;3.65;;;;;;;;;;5051292;28;20295;-77
2024/01/24 12:55:33;;;;;;;8.43;4.43;;;;;;;;;;5050673;28;20332;-76
2024/01/24 12:58:00;;;;;;;6.63;4.70;;;;;;;;;;5051905;28;20668;-76
2024/01/24 13:00:26;;;;;;;8.10;5.43;;;;;;;;;;5052075;28;20291;-79
2024/01/24 13:02:53;;;;;;;13.88;5.10;;;;;;;-142.91;100.00;56616.03;5052074;28;20655;-81
2024/01/24 13:05:20;;;;;;;5.43;4.60;;;;;;;;;;5052123;28;20552;-79
2024/01/24 13:07:46;;;;;;;6.80;5.72;;;;;;;;;;5051932;28;20232;-79
2024/01/24 13:10:13;;;;;;;9.25;4.88;;;;;;;-142.91;100.00;56616.03;5051535;28;20286;-77
2024/01/24 13:12:41;;;;;;;8.80;4.10;;;;;;;;;;5051798;28;20313;-78
2024/01/24 13:15:08;;;;;;;5.15;4.13;;;;;;;;;;5051754;28;20727;-79
2024/01/24 13:17:34;;;;;;;3.92;3.63;;;;;;;-142.91;100.00;56616.03;5052074;28;20732;-76
2024/01/24 13:20:04;;;;;;;6.30;4.72;;;;;;;;;;5051714;28;20241;-81
2024/01/24 13:22:31;;;;;;;5.15;4.50;;;;;;;;;;5052147;28;20242;-78
2024/01/24 13:24:57;;;;;;;9.55;4.90;;;;;;;;;;5052127;28;20274;-77
2024/01/24 13:27:23;;;;;;;4.72;4.32;;;;;;;;;;5052221;28;20238;-79
2024/01/24 13:29:51;;;;;;;5.28;4.75;;;;;;;;;;5051581;28;20285;-81
2024/01/24 13:32:19;;;;;;;5.85;3.78;;;;;;;;;;5051813;28;20241;-79
2024/01/24 13:34:45;;;;;;;6.70;3.80;;;;;;;;;;5051646;28;20277;-77
2024/01/24 13:37:12;;;;;;;7.47;4.10;;;;;;;;;;5051326;28;20585;-77
2024/01/24 13:39:39;;;;;;;5.38;4.10;;;;;;;;;;5051578;28;20286;-78